Time;durP1;ratioP1;P1;durP2;ratioP2;P2;SDS_P1;SDS_P2;PMS_P1;PMS_P2;Temp;Humidity;BMP_temperature;BMP_pressure;BME280_temperature;BME280_humidity;BME280_pressure;Samples;Min_cycle;Max_cycle;Signal;HPM_P1;HPM_P2
2022/11/26 00:00:20;;;;;;;6.87;5.63;;;;;;;-8.07;93.74;103109.94;5015352;28;20026;-75
2022/11/26 00:02:46;;;;;;;6.97;5.57;;;;;;;-7.97;93.18;103119.50;5015489;28;20033;-75
2022/11/26 00:05:13;;;;;;;9.50;5.97;;;;;;;-7.97;92.96;103121.22;5015463;28;20029;-73
2022/11/26 00:07:41;;;;;;;7.18;5.88;;;;;;;-8.08;93.34;103097.00;5015433;28;20028;-75
2022/11/26 00:10:16;;;;;;;12.32;5.97;;;;;;;-7.81;93.25;103110.13;5034891;28;20056;-74
2022/11/26 00:12:41;;;;;;;9.88;5.80;;;;;;;-7.75;91.78;103122.25;5028711;28;20037;-75
2022/11/26 00:15:20;;;;;;;6.40;5.13;;;;;;;-7.84;91.85;103121.31;5017115;28;20059;-74
2022/11/26 00:17:47;;;;;;;7.43;6.47;;;;;;;-7.96;91.60;103118.63;5015863;28;20057;-74
2022/11/26 00:20:14;;;;;;;6.93;6.20;;;;;;;-8.09;91.09;103127.16;5015203;28;20026;-74
2022/11/26 00:22:43;;;;;;;10.98;5.95;;;;;;;-8.19;91.75;103117.56;5015670;28;20029;-74
2022/11/26 00:25:21;;;;;;;7.70;6.40;;;;;;;-8.18;92.22;103121.88;5015760;28;20073;-73
2022/11/26 00:27:48;;;;;;;7.35;5.43;;;;;;;-8.28;91.92;103120.94;4997976;28;20473;-74
2022/11/26 00:30:22;;;;;;;9.43;6.53;;;;;;;-8.30;92.07;103122.66;5015099;28;20056;-74
2022/11/26 00:32:54;;;;;;;7.72;6.85;;;;;;;-8.39;92.58;103119.13;5015123;28;20026;-75
2022/11/26 00:35:21;;;;;;;9.77;7.00;;;;;;;-8.46;93.55;103119.06;5015081;28;20359;-75
2022/11/26 00:37:50;;;;;;;6.45;5.18;;;;;;;-8.51;93.53;103120.75;5015259;28;20022;-73
2022/11/26 00:40:25;;;;;;;9.65;7.63;;;;;;;-8.57;94.22;103105.19;5016887;28;20045;-73
2022/11/26 00:42:53;;;;;;;6.50;5.88;;;;;;;-8.59;93.96;103098.25;5033810;28;20030;-74
2022/11/26 00:45:22;;;;;;;8.50;6.05;;;;;;;-8.54;93.94;103123.28;5037007;28;20037;-74
2022/11/26 00:47:48;;;;;;;;;;;;;;;-8.51;93.78;103125.91;5037858;28;20049;-73
2022/11/26 00:50:25;;;;;;;9.37;6.10;;;;;;;-8.56;93.93;103119.81;5020763;28;19928;-74
2022/11/26 00:52:55;;;;;;;7.60;6.55;;;;;;;-8.53;93.63;103119.00;5014715;28;20272;-74
2022/11/26 00:55:36;;;;;;;6.80;5.53;;;;;;;-8.46;94.38;103119.06;5013750;28;20424;-74
2022/11/26 00:58:04;;;;;;;9.13;6.38;;;;;;;-8.50;92.40;103114.72;5014970;28;20022;-74
2022/11/26 01:00:31;;;;;;;8.35;5.90;;;;;;;-8.55;92.52;103113.81;5014401;28;20022;-74
2022/11/26 01:02:57;;;;;;;8.77;6.45;;;;;;;-8.48;92.67;103119.91;5014802;28;20369;-73
2022/11/26 01:05:29;;;;;;;7.40;5.38;;;;;;;-8.24;92.86;103129.59;5020150;28;20093;-75
2022/11/26 01:07:58;;;;;;;8.27;7.43;;;;;;;-8.18;91.65;103140.84;5037638;28;20041;-74
2022/11/26 01:10:27;;;;;;;8.32;5.32;;;;;;;-8.21;91.46;103127.03;5037091;28;20038;-75
2022/11/26 01:12:53;;;;;;;6.75;4.78;;;;;;;-8.06;91.12;103147.88;5023947;28;20081;-74
2022/11/26 01:15:23;;;;;;;8.70;6.68;;;;;;;-8.17;89.93;103144.28;5020921;28;20033;-75
2022/11/26 01:17:50;;;;;;;9.13;6.07;;;;;;;-8.18;90.38;103138.25;5014355;28;20458;-74
2022/11/26 01:20:27;;;;;;;10.25;6.45;;;;;;;-8.21;90.11;103147.72;5014020;28;20041;-74
2022/11/26 01:22:55;;;;;;;9.73;6.82;;;;;;;-8.34;90.65;103135.56;5013791;28;20022;-73
2022/11/26 01:25:22;;;;;;;9.57;6.93;;;;;;;-8.50;90.13;103121.59;5013941;28;20029;-75
2022/11/26 01:27:47;;;;;;;6.90;5.60;;;;;;;-8.43;90.72;103144.94;5013958;28;20026;-72
2022/11/26 01:30:24;;;;;;;9.20;7.03;;;;;;;-8.48;90.83;103138.84;5014220;28;20032;-74
2022/11/26 01:32:50;;;;;;;11.02;7.72;;;;;;;-8.46;91.43;103141.44;5013807;28;20029;-73
2022/11/26 01:35:18;;;;;;;9.73;6.22;;;;;;;-8.45;90.89;103141.47;5013865;28;20129;-74
2022/11/26 01:37:44;;;;;;;9.52;7.28;;;;;;;-8.54;91.66;103130.19;5013536;28;20038;-73
2022/11/26 01:40:27;;;;;;;8.30;7.05;;;;;;;-8.47;91.51;103150.91;5013376;28;20113;-75
2022/11/26 01:43:25;;;;;;;9.05;7.30;;;;;;;-8.48;91.44;103145.75;5013618;28;20044;-73
2022/11/26 01:45:51;;;;;;;9.20;7.03;;;;;;;-8.47;91.75;103140.59;5013006;28;20092;-74
2022/11/26 01:48:23;;;;;;;7.07;6.00;;;;;;;-8.40;91.24;103148.41;5013186;28;20513;-73
2022/11/26 01:51:02;;;;;;;9.93;8.25;;;;;;;-8.49;91.50;103147.47;5013110;28;20145;-74
2022/11/26 01:53:40;;;;;;;13.25;7.03;;;;;;;-8.54;91.29;103154.28;5013744;28;20527;-74
2022/11/26 01:56:18;;;;;;;7.93;6.00;;;;;;;-8.66;92.27;103159.34;5013425;28;20057;-74
2022/11/26 01:58:49;;;;;;;7.40;5.57;;;;;;;-8.67;92.04;103155.03;5013313;28;20044;-75
2022/11/26 02:01:16;;;;;;;10.43;6.22;;;;;;;-8.73;91.82;103152.34;5013830;28;20100;-75
2022/11/26 02:03:48;;;;;;;7.45;5.80;;;;;;;-8.65;92.33;103150.72;5013169;28;20033;-74
2022/11/26 02:06:19;;;;;;;7.32;6.60;;;;;;;-8.61;91.70;103141.31;5013065;28;20042;-73
2022/11/26 02:08:45;;;;;;;7.35;6.13;;;;;;;-8.59;91.84;103142.19;5013148;28;20599;-74
2022/11/26 02:11:21;;;;;;;9.02;5.65;;;;;;;-8.59;91.60;103124.09;5013042;28;20053;-73
2022/11/26 02:14:14;;;;;;;8.73;6.45;;;;;;;-8.51;91.35;103150.88;4998430;28;20034;-73
2022/11/26 02:16:49;;;;;;;8.10;7.30;;;;;;;-8.60;91.74;103149.06;5012994;28;20474;-74
2022/11/26 02:19:36;;;;;;;6.50;5.55;;;;;;;-8.60;92.25;103150.78;5012806;28;20034;-74
2022/11/26 02:22:18;;;;;;;7.82;6.05;;;;;;;-8.59;92.04;103148.22;4995526;28;20029;-74
2022/11/26 02:24:55;;;;;;;9.30;6.95;;;;;;;-8.53;92.35;103156.03;5012956;28;20091;-74
2022/11/26 02:27:57;;;;;;;9.93;6.75;;;;;;;-8.57;91.65;103162.00;5012721;28;20033;-72
2022/11/26 02:30:22;;;;;;;9.55;6.55;;;;;;;-8.79;91.69;103137.63;4995173;28;20044;-73
2022/11/26 02:32:58;;;;;;;10.37;7.57;;;;;;;-8.68;92.36;103152.38;5012749;28;20038;-73
2022/11/26 02:35:47;;;;;;;13.45;7.93;;;;;;;-8.62;92.96;103150.78;5012683;28;20084;-74
2022/11/26 02:38:20;;;;;;;13.35;9.38;;;;;;;-8.64;92.46;103157.63;5012548;28;20053;-74
2022/11/26 02:40:46;;;;;;;14.88;9.43;;;;;;;-8.71;92.54;103148.06;5012511;28;20040;-72
2022/11/26 02:43:14;;;;;;;12.80;8.27;;;;;;;-8.71;92.55;103155.81;5012486;28;20030;-73
2022/11/26 02:45:46;;;;;;;11.18;8.35;;;;;;;-8.72;92.36;103154.06;5012709;28;20271;-73
2022/11/26 02:48:20;;;;;;;12.35;9.98;;;;;;;-8.67;92.58;103152.44;5012579;28;20386;-74
2022/11/26 02:50:59;;;;;;;14.48;8.75;;;;;;;-8.70;92.82;103160.13;5012245;28;20137;-74
2022/11/26 02:53:25;;;;;;;;;;;;;;;-8.70;93.27;103157.53;5013172;28;20038;-72
2022/11/26 02:56:05;;;;;;;11.02;8.10;;;;;;;-8.72;92.26;103167.00;5012663;28;19952;-73
2022/11/26 02:58:32;;;;;;;15.95;8.70;;;;;;;-8.72;92.50;103169.56;5012270;28;20033;-72
2022/11/26 03:01:03;;;;;;;13.82;8.82;;;;;;;-8.82;92.42;103160.84;5012585;28;20092;-72
2022/11/26 03:03:36;;;;;;;12.23;7.78;;;;;;;-8.77;92.51;103168.66;4995169;28;20545;-73
2022/11/26 03:06:06;;;;;;;11.88;9.27;;;;;;;-8.77;93.12;103156.59;5012565;28;20030;-74
2022/11/26 03:08:32;;;;;;;12.52;7.80;;;;;;;-8.80;92.78;103153.13;5013162;28;20033;-73
2022/11/26 03:10:58;;;;;;;11.37;8.57;;;;;;;-8.76;92.88;103171.25;4996568;28;20025;-74
2022/11/26 03:13:24;;;;;;;11.70;8.82;;;;;;;-8.87;93.31;103154.78;4994799;28;20041;-74
2022/11/26 03:15:50;;;;;;;11.47;8.07;;;;;;;-8.77;93.03;103166.94;5012840;28;20030;-73
2022/11/26 03:18:16;;;;;;;12.83;8.07;;;;;;;-8.81;93.66;103172.06;4994922;28;20033;-72
2022/11/26 03:20:42;;;;;;;9.77;7.43;;;;;;;-8.79;93.04;103167.78;4998454;28;20057;-74
2022/11/26 03:23:08;;;;;;;9.65;7.63;;;;;;;-8.75;93.36;103174.69;4998866;28;20116;-73
2022/11/26 03:25:34;;;;;;;9.60;7.70;;;;;;;-8.76;92.75;103172.97;5016193;28;20465;-73
2022/11/26 03:27:59;;;;;;;12.97;7.83;;;;;;;-8.90;92.96;103159.03;5016031;28;20272;-72
2022/11/26 03:30:25;;;;;;;12.13;8.47;;;;;;;-8.81;93.91;103166.88;5015981;28;20057;-73
2022/11/26 03:32:51;;;;;;;13.30;8.13;;;;;;;-8.88;93.48;103173.69;5016141;28;20034;-74
2022/11/26 03:35:16;;;;;;;12.87;7.87;;;;;;;-8.92;93.51;103181.38;4998585;28;20037;-73
2022/11/26 03:37:42;;;;;;;12.97;7.97;;;;;;;-8.89;93.67;103181.41;5016058;28;20088;-72
2022/11/26 03:40:08;;;;;;;16.50;8.13;;;;;;;-8.94;94.08;103163.28;5016018;28;20359;-72
2022/11/26 03:42:34;;;;;;;11.30;8.23;;;;;;;-8.93;93.41;103165.03;5015666;28;20417;-72
2022/11/26 03:44:59;;;;;;;13.10;9.43;;;;;;;-8.83;93.38;103182.38;4998000;28;20034;-74
2022/11/26 03:47:26;;;;;;;11.60;8.27;;;;;;;-8.92;93.47;103176.22;4998221;28;20022;-73
2022/11/26 03:49:52;;;;;;;10.00;8.02;;;;;;;-9.01;93.93;103173.50;5015662;28;20022;-73
2022/11/26 03:52:18;;;;;;;10.80;8.30;;;;;;;-8.99;94.52;103167.50;5015796;28;20044;-74
2022/11/26 03:54:43;;;;;;;12.70;10.17;;;;;;;-8.92;93.56;103171.94;5015498;28;20717;-73
2022/11/26 03:57:09;;;;;;;11.47;9.93;;;;;;;-8.98;93.84;103164.06;5015748;28;20044;-73
2022/11/26 03:59:34;;;;;;;9.80;8.63;;;;;;;-9.03;93.24;103167.44;4998275;28;20056;-72
2022/11/26 04:02:00;;;;;;;12.93;8.27;;;;;;;-9.16;93.02;103166.44;5015711;28;20033;-73
2022/11/26 04:04:25;;;;;;;12.30;8.50;;;;;;;-9.17;93.33;103173.31;4998048;28;20030;-73
2022/11/26 04:06:51;;;;;;;12.20;9.67;;;;;;;-9.21;93.93;103179.28;4998109;28;20041;-73
2022/11/26 04:09:16;;;;;;;13.00;8.83;;;;;;;-9.22;93.78;103181.84;5015526;28;20033;-74
2022/11/26 04:11:42;;;;;;;13.00;8.13;;;;;;;-9.26;93.98;103173.16;5015641;28;20105;-73
2022/11/26 04:14:07;;;;;;;10.53;7.00;;;;;;;-9.27;93.73;103162.81;5015023;28;20038;-73
2022/11/26 04:16:33;;;;;;;9.27;7.43;;;;;;;-9.12;93.48;103181.09;5015464;28;20034;-72
2022/11/26 04:18:59;;;;;;;9.67;7.67;;;;;;;-9.24;92.97;103176.66;5015517;28;20462;-73
2022/11/26 04:21:24;;;;;;;14.53;9.73;;;;;;;-9.35;92.29;103185.94;5015248;28;20026;-73
2022/11/26 04:23:50;;;;;;;12.40;8.53;;;;;;;-9.37;93.06;103187.63;5015023;28;20034;-73
2022/11/26 04:26:15;;;;;;;14.50;9.03;;;;;;;-9.39;93.17;103177.28;5014978;28;20030;-73
2022/11/26 04:28:41;;;;;;;9.80;7.50;;;;;;;-9.33;93.17;103183.38;5014708;28;20381;-72
2022/11/26 04:31:06;;;;;;;13.50;9.30;;;;;;;-9.33;93.06;103173.91;5014700;28;20030;-73
2022/11/26 04:33:32;;;;;;;16.33;11.63;;;;;;;-9.28;92.30;103176.56;5014951;28;20018;-72
2022/11/26 04:35:57;;;;;;;15.90;9.17;;;;;;;-9.26;91.72;103186.06;5014970;28;20421;-72
2022/11/26 04:38:23;;;;;;;13.27;8.87;;;;;;;-9.29;91.70;103188.59;5014823;28;20124;-72
2022/11/26 04:40:49;;;;;;;12.20;9.70;;;;;;;-9.43;91.55;103182.38;4997137;28;20034;-72
2022/11/26 04:43:14;;;;;;;13.47;8.60;;;;;;;-9.43;91.19;103188.41;5014540;28;20042;-73
2022/11/26 04:45:40;;;;;;;11.17;9.03;;;;;;;-9.48;91.31;103197.78;5014757;28;20034;-72
2022/11/26 04:48:06;;;;;;;17.70;8.37;;;;;;;-9.46;91.11;103198.69;5014655;28;20033;-73
2022/11/26 04:50:31;;;;;;;13.68;9.38;;;;;;;-9.42;91.48;103217.66;5014206;28;20406;-72
2022/11/26 04:52:57;;;;;;;11.53;7.20;;;;;;;-9.44;90.97;103197.00;5015066;28;20049;-73
2022/11/26 04:55:23;;;;;;;10.40;7.87;;;;;;;-9.48;89.96;103209.81;5014517;28;20033;-73
2022/11/26 04:57:49;;;;;;;11.63;8.10;;;;;;;-9.58;89.97;103202.75;4996728;28;20021;-74
2022/11/26 05:00:18;;;;;;;16.87;8.97;;;;;;;-9.63;90.28;103202.69;5014377;28;20022;-73
2022/11/26 05:02:44;;;;;;;12.48;7.55;;;;;;;-9.64;90.46;103193.22;4996958;28;20554;-75
2022/11/26 05:05:11;;;;;;;16.00;8.93;;;;;;;-9.72;89.99;103159.56;4996775;28;20458;-72
2022/11/26 05:07:36;;;;;;;11.07;7.18;;;;;;;-9.63;89.47;103179.47;5014222;28;20099;-72
2022/11/26 05:10:03;;;;;;;14.47;9.23;;;;;;;-9.80;89.39;103171.47;5015812;28;20466;-72
2022/11/26 05:12:29;;;;;;;16.30;8.38;;;;;;;-9.84;89.30;103179.97;5016442;28;20068;-72
2022/11/26 05:14:55;;;;;;;14.13;8.90;;;;;;;-9.84;90.04;103185.13;5014623;28;20248;-73
2022/11/26 05:17:20;;;;;;;12.93;9.17;;;;;;;-9.91;89.65;103173.00;4980593;28;20116;-73
2022/11/26 05:19:46;;;;;;;15.07;8.10;;;;;;;-9.83;89.98;103194.66;5013915;28;20041;-74
2022/11/26 05:22:11;;;;;;;14.80;9.40;;;;;;;-9.92;89.69;103186.72;5014463;28;20034;-73
2022/11/26 05:24:37;;;;;;;13.97;8.03;;;;;;;-9.98;89.44;103202.09;5013876;28;20461;-73
2022/11/26 05:27:02;;;;;;;12.87;8.77;;;;;;;-10.16;89.21;103178.56;4996288;28;20034;-73
2022/11/26 05:29:28;;;;;;;17.37;9.47;;;;;;;-10.15;88.97;103193.19;5013943;28;20073;-73
2022/11/26 05:31:54;;;;;;;14.27;9.23;;;;;;;-10.23;89.16;103202.53;5014043;28;20492;-72
2022/11/26 05:34:20;;;;;;;17.23;9.20;;;;;;;-10.16;90.00;103204.31;5013580;28;20030;-73
2022/11/26 05:36:45;;;;;;;13.63;9.57;;;;;;;-10.20;90.00;103200.00;5013596;28;20462;-73
2022/11/26 05:39:11;;;;;;;20.10;10.50;;;;;;;-10.28;89.41;103201.56;5013663;28;20091;-72
2022/11/26 05:41:37;;;;;;;19.30;12.27;;;;;;;-10.34;89.41;103207.47;5013034;28;20434;-74
2022/11/26 05:44:03;;;;;;;16.57;9.77;;;;;;;-10.63;89.81;103176.88;5013654;28;20080;-73
2022/11/26 05:46:28;;;;;;;16.87;9.87;;;;;;;-10.36;90.09;103210.03;5017433;28;20079;-73
2022/11/26 05:48:54;;;;;;;21.50;11.00;;;;;;;-10.37;89.24;103213.44;5016657;28;20026;-74
2022/11/26 05:51:19;;;;;;;17.20;11.87;;;;;;;-10.40;89.78;103205.66;4999603;28;20046;-72
2022/11/26 05:53:45;;;;;;;15.77;9.87;;;;;;;-10.48;89.42;103202.03;4977204;28;20038;-74
2022/11/26 05:56:10;;;;;;;13.73;8.67;;;;;;;-10.48;89.67;103212.34;5006094;28;20049;-72
2022/11/26 05:58:36;;;;;;;19.37;11.40;;;;;;;-10.60;89.98;103206.97;5017024;28;20018;-74
2022/11/26 06:01:08;;;;;;;20.33;10.73;;;;;;;-10.49;90.43;103223.50;5016974;28;20061;-75
2022/11/26 06:03:35;;;;;;;22.98;10.35;;;;;;;-10.42;89.97;103225.34;4998602;28;20038;-74
2022/11/26 06:06:01;;;;;;;17.02;9.43;;;;;;;-10.50;89.24;103229.47;4994231;28;20036;-74
2022/11/26 06:08:27;;;;;;;15.77;9.57;;;;;;;-10.55;89.71;103225.06;4993774;28;20049;-73
2022/11/26 06:10:53;;;;;;;15.80;10.30;;;;;;;-10.44;90.57;103234.75;4993553;28;20470;-73
2022/11/26 06:13:18;;;;;;;22.30;10.73;;;;;;;-10.39;90.45;103229.72;4994213;28;20440;-72
2022/11/26 06:15:44;;;;;;;16.80;10.77;;;;;;;-10.42;89.48;103222.75;4993691;28;20034;-73
2022/11/26 06:18:09;;;;;;;17.43;10.73;;;;;;;-10.51;90.12;103209.72;4976109;28;20037;-73
2022/11/26 06:20:36;;;;;;;17.90;9.40;;;;;;;-10.44;89.04;103229.59;4998474;28;20026;-73
2022/11/26 06:23:01;;;;;;;18.38;9.90;;;;;;;-10.40;89.56;103235.72;5015676;28;20037;-74
2022/11/26 06:25:27;;;;;;;18.77;10.83;;;;;;;-10.53;88.91;103219.13;5016257;28;20026;-72
2022/11/26 06:27:54;;;;;;;18.10;11.13;;;;;;;-10.57;89.29;103234.47;4999380;28;20049;-73
2022/11/26 06:30:20;;;;;;;20.42;10.75;;;;;;;-10.58;89.84;103227.59;5008048;28;20030;-74
2022/11/26 06:32:47;;;;;;;18.85;10.30;;;;;;;-10.50;89.85;103228.63;4993762;28;20037;-79
2022/11/26 06:35:13;;;;;;;19.35;9.90;;;;;;;-10.54;89.67;103235.41;4995997;28;20026;-74
2022/11/26 06:37:39;;;;;;;20.23;10.70;;;;;;;-10.57;89.40;103234.47;4993705;28;20470;-73
2022/11/26 06:40:29;;;;;;;17.23;9.70;;;;;;;-10.59;89.79;103229.31;4995159;28;20044;-75
2022/11/26 06:42:55;;;;;;;20.73;11.07;;;;;;;-10.55;89.64;103225.94;4998197;28;20030;-74
2022/11/26 06:45:22;;;;;;;12.90;9.60;;;;;;;-10.48;89.25;103239.81;4993599;28;20030;-74
2022/11/26 06:47:49;;;;;;;14.15;9.18;;;;;;;-10.63;89.06;103227.50;4993200;28;20466;-72
2022/11/26 06:50:17;;;;;;;18.83;10.48;;;;;;;-10.61;89.54;103228.41;4992754;28;20058;-71
2022/11/26 06:52:43;;;;;;;17.55;8.52;;;;;;;-10.90;89.58;103184.03;4992584;28;20045;-74
2022/11/26 06:55:09;;;;;;;17.57;8.97;;;;;;;-10.53;88.87;103242.28;4991999;28;20034;-73
2022/11/26 06:57:34;;;;;;;17.63;9.57;;;;;;;-10.55;88.83;103240.53;4993076;28;20497;-73
2022/11/26 07:00:00;;;;;;;20.40;10.33;;;;;;;-10.70;89.48;103244.50;4992922;28;20034;-73
2022/11/26 07:02:25;;;;;;;18.57;10.60;;;;;;;-10.64;89.80;103243.78;4993705;28;20031;-73
2022/11/26 07:04:51;;;;;;;17.90;10.70;;;;;;;-10.66;89.37;103248.03;4993824;28;20478;-71
2022/11/26 07:07:16;;;;;;;18.70;11.50;;;;;;;-10.63;90.19;103250.69;4993383;28;20381;-71
2022/11/26 07:09:42;;;;;;;18.93;9.57;;;;;;;-10.54;90.09;103256.00;4995027;28;20358;-73
2022/11/26 07:12:08;;;;;;;18.40;12.07;;;;;;;-10.47;89.64;103250.16;4998603;28;20035;-72
2022/11/26 07:14:34;;;;;;;17.47;9.50;;;;;;;-10.34;89.45;103262.44;4997116;28;20030;-73
2022/11/26 07:16:59;;;;;;;16.42;10.35;;;;;;;-10.38;88.55;103247.78;4980530;28;20067;-72
2022/11/26 07:19:25;;;;;;;16.90;8.63;;;;;;;-10.38;88.58;103258.09;4997170;28;20457;-72
2022/11/26 07:21:51;;;;;;;19.70;9.13;;;;;;;-10.51;88.29;103243.19;4998246;28;20032;-72
2022/11/26 07:24:16;;;;;;;17.10;11.47;;;;;;;-10.33;88.53;103266.75;4982020;28;20022;-73
2022/11/26 07:26:42;;;;;;;18.73;10.83;;;;;;;-10.30;88.75;103262.50;4996893;28;20359;-72
2022/11/26 07:29:08;;;;;;;31.90;11.70;;;;;;;-10.32;87.71;103258.19;4999638;28;20418;-72
2022/11/26 07:31:35;;;;;;;21.00;10.60;;;;;;;-10.38;87.95;103247.78;4996191;28;20413;-79
2022/11/26 07:34:03;;;;;;;19.05;10.63;;;;;;;-10.24;87.57;103265.19;4996635;28;20030;-79
2022/11/26 07:36:30;;;;;;;19.83;9.40;;;;;;;-10.22;87.42;103260.94;4993947;28;20355;-74
2022/11/26 07:39:18;;;;;;;17.58;10.63;;;;;;;-10.39;87.29;103243.47;4993800;28;20026;-76
2022/11/26 07:41:45;;;;;;;18.20;11.30;;;;;;;-10.37;87.88;103238.34;4994548;28;20157;-77
2022/11/26 07:44:15;;;;;;;19.27;9.63;;;;;;;-10.27;88.28;103249.69;4975774;28;20121;-75
2022/11/26 07:50:32;;;;;;;23.02;10.50;;;;;;;-10.23;87.20;103251.47;4904560;29;20091;-76
2022/11/26 07:52:58;;;;;;;18.73;10.37;;;;;;;-10.27;87.10;103250.56;4913572;28;20129;-77
2022/11/26 07:55:24;;;;;;;20.77;9.90;;;;;;;-10.25;87.47;103245.44;4970862;28;20355;-77
2022/11/26 07:57:49;;;;;;;18.93;10.57;;;;;;;-10.15;87.33;103250.75;4991477;28;20053;-78
2022/11/26 08:00:15;;;;;;;20.73;9.40;;;;;;;-10.17;87.31;103246.41;4983944;28;20026;-76
2022/11/26 08:02:41;;;;;;;16.63;10.38;;;;;;;-10.12;86.72;103262.81;4985850;28;20109;-73
2022/11/26 08:05:06;;;;;;;23.47;10.03;;;;;;;-10.16;87.05;103263.59;4990128;28;20113;-75
2022/11/26 08:07:34;;;;;;;19.23;10.07;;;;;;;-10.10;87.38;103274.06;4994665;28;20030;-77
2022/11/26 08:09:59;;;;;;;17.45;9.30;;;;;;;-10.10;86.25;103282.66;4995269;28;20029;-74
2022/11/26 08:12:25;;;;;;;17.43;10.37;;;;;;;-10.19;86.38;103271.28;4989377;28;20098;-72
2022/11/26 08:14:50;;;;;;;19.07;9.73;;;;;;;-10.14;86.66;103283.41;4986658;28;20033;-75
2022/11/26 08:17:16;;;;;;;22.47;10.17;;;;;;;-10.08;86.84;103280.09;4982179;28;20526;-72
2022/11/26 08:19:41;;;;;;;20.47;10.43;;;;;;;-10.00;86.34;103287.13;4975616;28;20427;-75
2022/11/26 08:22:07;;;;;;;24.40;10.00;;;;;;;-10.08;86.36;103273.25;4994784;28;20034;-74
2022/11/26 08:24:32;;;;;;;22.20;10.53;;;;;;;-10.01;86.92;103287.09;4985464;28;20023;-73
2022/11/26 08:26:58;;;;;;;20.10;10.97;;;;;;;-9.88;86.55;103286.47;4981763;28;20037;-73
2022/11/26 08:29:24;;;;;;;18.17;11.23;;;;;;;-9.89;86.31;103263.25;4958721;28;20109;-75
2022/11/26 08:31:50;;;;;;;15.35;8.32;;;;;;;-9.84;85.87;103282.25;4984125;28;20466;-73
2022/11/26 08:34:16;;;;;;;14.23;8.77;;;;;;;-9.81;85.44;103288.38;4988462;28;20029;-77
2022/11/26 08:36:42;;;;;;;17.08;9.57;;;;;;;-9.85;86.05;103290.81;4990386;28;20058;-76
2022/11/26 08:39:11;;;;;;;22.27;11.02;;;;;;;-10.11;86.67;103231.94;4988551;28;20417;-79
2022/11/26 08:41:37;;;;;;;17.58;10.70;;;;;;;-9.72;85.69;103291.09;4988355;28;20022;-73
2022/11/26 08:44:03;;;;;;;14.77;9.37;;;;;;;-9.80;86.32;103277.22;4987622;28;20030;-73
2022/11/26 08:46:28;;;;;;;16.60;10.40;;;;;;;-9.76;85.29;103275.53;4987236;28;20030;-75
2022/11/26 08:48:55;;;;;;;19.77;10.67;;;;;;;-9.85;85.77;103267.63;4981695;28;20435;-74
2022/11/26 08:51:42;;;;;;;17.92;10.23;;;;;;;-9.77;86.67;103282.41;4989273;28;20050;-81
2022/11/26 08:54:18;;;;;;;17.42;9.18;;;;;;;-10.19;85.80;103222.31;4982767;28;20045;-76
2022/11/26 08:56:43;;;;;;;22.75;11.15;;;;;;;-9.79;86.05;103281.53;4989048;28;20034;-76
2022/11/26 08:59:09;;;;;;;15.20;9.23;;;;;;;-9.83;86.25;103268.50;4985088;28;20030;-75
2022/11/26 09:01:38;;;;;;;18.90;10.47;;;;;;;-9.99;86.39;103236.44;4982783;28;20062;-76
2022/11/26 09:07:44;;;;;;;18.27;9.25;;;;;;;-9.70;85.52;103273.94;4980262;28;20104;-77
2022/11/26 09:10:18;;;;;;;20.05;10.68;;;;;;;-9.66;86.22;103284.31;4978407;28;20111;-76
2022/11/26 09:12:44;;;;;;;17.90;11.00;;;;;;;-9.82;86.65;103271.16;4986760;28;20035;-75
2022/11/26 09:15:09;;;;;;;19.43;9.43;;;;;;;-9.69;85.69;103269.66;4986457;28;20477;-75
2022/11/26 09:17:35;;;;;;;13.67;9.30;;;;;;;-9.62;85.60;103273.19;4985374;28;20521;-79
2022/11/26 09:20:00;;;;;;;20.50;10.43;;;;;;;-9.68;86.17;103267.09;4992446;28;20113;-77
2022/11/26 09:22:26;;;;;;;16.07;10.00;;;;;;;-9.55;86.38;103277.59;4961163;28;20019;-80
2022/11/26 09:24:52;;;;;;;21.40;10.53;;;;;;;-9.30;87.14;103282.34;4969155;28;20026;-77
2022/11/26 09:27:17;;;;;;;18.77;9.97;;;;;;;-9.22;85.48;103272.16;4956573;28;20031;-76
2022/11/26 09:29:43;;;;;;;17.57;8.80;;;;;;;-9.27;84.59;103274.66;4974388;28;20113;-76
2022/11/26 09:32:08;;;;;;;16.33;10.20;;;;;;;-9.27;84.98;103272.06;4966252;28;20081;-76
2022/11/26 09:34:35;;;;;;;18.33;9.63;;;;;;;-9.28;84.84;103267.75;4964296;28;20426;-77
2022/11/26 09:37:01;;;;;;;17.55;8.35;;;;;;;-9.36;85.44;103256.44;4967689;28;20038;-77
2022/11/26 09:39:27;;;;;;;27.92;10.35;;;;;;;-9.48;85.30;103262.28;4967378;28;20038;-75
2022/11/26 09:42:14;;;;;;;17.10;9.93;;;;;;;-9.44;86.42;103263.19;4967680;28;20031;-76
2022/11/26 09:44:43;;;;;;;18.27;9.65;;;;;;;-9.37;86.27;103280.50;4964222;28;20035;-78
2022/11/26 09:47:14;;;;;;;14.10;9.57;;;;;;;-9.38;86.09;103274.47;4956805;28;20463;-77
2022/11/26 09:50:19;;;;;;;21.15;10.95;;;;;;;-9.32;86.20;103278.00;4964241;28;20046;-77
2022/11/26 09:53:17;;;;;;;20.73;10.23;;;;;;;-9.59;86.75;103266.38;4982348;28;20038;-77
2022/11/26 09:55:46;;;;;;;15.52;11.00;;;;;;;-9.54;86.58;103269.03;4990180;28;20101;-76
2022/11/26 09:58:18;;;;;;;23.67;13.30;;;;;;;-9.48;87.03;103266.56;4968418;28;20027;-77
2022/11/26 10:00:47;;;;;;;12.02;8.35;;;;;;;-9.41;86.51;103282.19;4987599;28;20038;-75
2022/11/26 10:03:14;;;;;;;17.30;8.63;;;;;;;-9.45;86.50;103284.69;4989121;28;20042;-81
2022/11/26 10:05:47;;;;;;;15.40;9.25;;;;;;;-9.39;87.07;103282.19;4980277;28;20105;-77
2022/11/26 10:08:31;;;;;;;15.77;9.70;;;;;;;-9.34;86.68;103290.88;4986453;28;20352;-77
2022/11/26 10:11:07;;;;;;;17.25;10.73;;;;;;;-9.34;86.43;103298.63;4988549;28;20026;-79
2022/11/26 10:14:04;;;;;;;16.88;8.68;;;;;;;-9.38;86.90;103289.09;4989484;28;20035;-77
2022/11/26 10:16:45;;;;;;;14.05;8.60;;;;;;;-9.34;86.98;103295.19;4989022;28;20050;-78
2022/11/26 10:19:26;;;;;;;15.70;8.65;;;;;;;-9.37;86.83;103307.19;4983723;28;20026;-77
2022/11/26 10:21:57;;;;;;;15.82;8.20;;;;;;;-9.43;86.87;103306.22;4991686;28;20030;-73
2022/11/26 10:24:29;;;;;;;15.15;9.18;;;;;;;-9.44;87.41;103307.94;4985985;28;20126;-76
2022/11/26 10:26:56;;;;;;;13.50;9.10;;;;;;;-9.42;87.59;103301.09;4986921;28;20038;-78
2022/11/26 10:29:23;;;;;;;18.77;8.32;;;;;;;-9.32;87.75;103315.00;4985848;28;20030;-80
2022/11/26 10:31:53;;;;;;;20.23;8.60;;;;;;;-9.20;88.15;103306.63;4993146;28;20061;-79
2022/11/26 10:34:39;;;;;;;9.88;7.93;;;;;;;-9.13;87.37;103305.84;4988389;28;20086;-78
2022/11/26 10:37:04;;;;;;;15.00;8.02;;;;;;;-9.14;87.26;103305.00;5007369;28;20042;-80
2022/11/26 10:39:30;;;;;;;13.30;8.00;;;;;;;-9.06;87.01;103305.97;4997978;28;20038;-76
2022/11/26 10:42:17;;;;;;;13.37;9.40;;;;;;;-9.05;86.75;103309.41;4985857;28;20117;-78
2022/11/26 10:49:15;;;;;;;19.45;8.80;;;;;;;-9.15;87.70;103318.75;4958635;28;20175;-77
2022/11/26 10:51:48;;;;;;;13.75;8.55;;;;;;;-9.40;87.33;103280.47;4962297;28;20438;-79
2022/11/26 10:54:33;;;;;;;15.05;7.93;;;;;;;-9.26;87.39;103320.25;4954449;28;20039;-73
2022/11/26 10:57:13;;;;;;;16.10;8.32;;;;;;;-9.25;87.65;103327.19;4960045;28;20069;-76
2022/11/26 10:59:50;;;;;;;15.10;8.60;;;;;;;-9.21;87.94;103320.34;4981255;28;20042;-78
2022/11/26 11:02:27;;;;;;;17.10;9.43;;;;;;;-9.20;87.12;103320.38;4990117;28;20047;-73
2022/11/26 11:04:55;;;;;;;18.08;9.55;;;;;;;-9.23;87.19;103320.34;4989560;28;20058;-75
2022/11/26 11:07:34;;;;;;;21.23;10.45;;;;;;;-9.26;87.37;103320.25;4987584;28;20037;-80
2022/11/26 11:10:17;;;;;;;10.98;9.07;;;;;;;-9.26;87.95;103316.81;4987957;28;20033;-77
2022/11/26 11:13:10;;;;;;;14.90;8.95;;;;;;;-9.25;87.75;103305.63;4998840;28;20030;-77
2022/11/26 11:15:39;;;;;;;11.02;6.93;;;;;;;-9.18;88.21;103323.00;5004106;28;20039;-76
2022/11/26 11:18:12;;;;;;;9.65;8.35;;;;;;;-9.18;87.45;103313.53;5006942;28;20035;-76
2022/11/26 11:20:49;;;;;;;12.70;7.57;;;;;;;-9.12;87.43;103317.91;4987457;28;20042;-76
2022/11/26 11:26:59;;;;;;;14.63;9.30;;;;;;;-9.16;87.58;103305.81;4962253;28;20034;-78
2022/11/26 11:29:46;;;;;;;9.80;7.20;;;;;;;-9.04;87.24;103310.28;4983831;28;20285;-78
2022/11/26 11:32:33;;;;;;;12.85;7.18;;;;;;;-9.11;86.67;103315.34;4990806;28;20049;-78
2022/11/26 11:35:25;;;;;;;12.60;7.57;;;;;;;-9.14;87.05;103312.72;4979391;28;20165;-75
2022/11/26 11:37:55;;;;;;;13.63;8.73;;;;;;;-9.20;87.18;103320.38;5003760;28;20017;-77
2022/11/26 11:40:26;;;;;;;12.82;7.88;;;;;;;-9.17;87.26;103322.16;5014742;28;20035;-78